Time;durP1;ratioP1;P1;durP2;ratioP2;P2;SDS_P1;SDS_P2;PMS_P1;PMS_P2;Temp;Humidity;BMP_temperature;BMP_pressure;BME280_temperature;BME280_humidity;BME280_pressure;Samples;Min_cycle;Max_cycle;Signal;HPM_P1;HPM_P2
2023/10/11 00:02:56;;;;;;;25.15;9.95;;;16.40;99.90;;;;;;5035941;28;20063;-79
2023/10/11 00:05:22;;;;;;;17.90;9.15;;;16.40;99.90;;;;;;5025902;28;20033;-79
2023/10/11 00:07:48;;;;;;;23.10;9.85;;;16.40;99.90;;;;;;5043229;28;20516;-78
2023/10/11 00:10:19;;;;;;;21.67;10.27;;;16.40;99.90;;;;;;5035148;28;20040;-78
2023/10/11 00:12:46;;;;;;;22.20;9.80;;;16.40;99.90;;;;;;5052192;28;20048;-78
2023/10/11 00:15:11;;;;;;;23.02;10.82;;;16.40;99.90;;;;;;5050251;28;20120;-78
2023/10/11 00:17:37;;;;;;;22.00;10.65;;;16.30;99.90;;;;;;5030478;28;20043;-78
2023/10/11 00:20:15;;;;;;;22.48;10.20;;;16.30;99.90;;;;;;5044604;28;20037;-78
2023/10/11 00:22:41;;;;;;;20.27;9.98;;;16.30;99.90;;;;;;5048935;28;20049;-78
2023/10/11 00:25:07;;;;;;;28.50;10.75;;;16.30;99.90;;;;;;5050591;28;20165;-78
2023/10/11 00:27:36;;;;;;;19.65;10.65;;;16.30;99.90;;;;;;5035217;28;20461;-79
2023/10/11 00:30:02;;;;;;;21.80;11.10;;;16.30;99.90;;;;;;5050883;28;20041;-80
2023/10/11 00:32:28;;;;;;;20.42;10.73;;;16.30;99.90;;;;;;5049458;28;20044;-79
2023/10/11 00:34:54;;;;;;;18.77;10.35;;;16.30;99.90;;;;;;5051489;28;20131;-79
2023/10/11 00:37:20;;;;;;;21.33;11.30;;;16.30;99.90;;;;;;5050922;28;20048;-80
2023/10/11 00:39:48;;;;;;;29.05;12.40;;;16.30;99.90;;;;;;5052646;28;20049;-79
2023/10/11 00:42:14;;;;;;;25.95;11.98;;;16.20;99.90;;;;;;5045711;28;20060;-80
2023/10/11 00:44:42;;;;;;;23.55;11.57;;;16.30;99.90;;;;;;5048529;28;20045;-80
2023/10/11 00:47:09;;;;;;;20.92;11.45;;;16.20;99.90;;;;;;5050390;28;20048;-80
2023/10/11 00:49:36;;;;;;;25.73;11.18;;;16.20;99.90;;;;;;5044922;28;20080;-80
2023/10/11 00:52:06;;;;;;;23.45;12.20;;;16.20;99.90;;;;;;5031545;28;20056;-80
2023/10/11 00:54:33;;;;;;;27.85;12.13;;;16.20;99.90;;;;;;5032290;28;20058;-79
2023/10/11 00:57:00;;;;;;;28.65;13.02;;;16.20;99.90;;;;;;5031380;28;20116;-79
2023/10/11 00:59:30;;;;;;;29.60;13.48;;;16.20;99.90;;;;;;5032275;28;20133;-80
2023/10/11 01:01:58;;;;;;;29.95;11.93;;;16.20;99.90;;;;;;5014941;28;20111;-79
2023/10/11 01:04:27;;;;;;;28.33;13.18;;;16.20;99.90;;;;;;5031028;28;20115;-79
2023/10/11 01:06:53;;;;;;;25.65;12.63;;;16.20;99.90;;;;;;5038209;28;20056;-79
2023/10/11 01:09:26;;;;;;;27.17;13.32;;;16.20;99.90;;;;;;5050758;28;20132;-79
2023/10/11 01:11:54;;;;;;;25.98;13.45;;;16.20;99.90;;;;;;5051204;28;20049;-80
2023/10/11 01:14:23;;;;;;;28.20;12.52;;;16.20;99.90;;;;;;5054361;28;20045;-80
2023/10/11 01:16:51;;;;;;;34.15;14.18;;;16.20;99.90;;;;;;5052984;28;20060;-81
2023/10/11 01:19:18;;;;;;;31.25;14.43;;;16.20;99.90;;;;;;5035233;28;20052;-79
2023/10/11 01:21:51;;;;;;;25.17;12.95;;;16.10;99.90;;;;;;5040486;28;20463;-79
2023/10/11 01:24:17;;;;;;;37.55;14.57;;;16.20;99.90;;;;;;5043053;28;20045;-80
2023/10/11 01:26:42;;;;;;;34.22;15.38;;;16.10;99.90;;;;;;5025547;28;20037;-79
2023/10/11 01:29:09;;;;;;;25.83;13.15;;;16.10;99.90;;;;;;5042235;28;20037;-79
2023/10/11 01:31:36;;;;;;;25.60;14.07;;;16.10;99.90;;;;;;5027204;28;20041;-80
2023/10/11 01:34:02;;;;;;;24.77;13.55;;;16.10;99.90;;;;;;5035173;28;20045;-79
2023/10/11 01:36:28;;;;;;;27.80;14.07;;;16.10;99.90;;;;;;5053760;28;20091;-80
2023/10/11 01:38:54;;;;;;;31.38;14.48;;;16.10;99.90;;;;;;5036093;28;20069;-79
2023/10/11 01:41:30;;;;;;;32.03;14.50;;;16.10;99.90;;;;;;5041939;28;20056;-81
2023/10/11 01:43:58;;;;;;;28.02;14.20;;;16.10;99.90;;;;;;5048851;28;20110;-79
2023/10/11 01:46:28;;;;;;;30.15;13.85;;;16.10;99.90;;;;;;5025223;28;20045;-80
2023/10/11 01:48:55;;;;;;;29.42;14.88;;;16.10;99.90;;;;;;5043047;28;20049;-79
2023/10/11 01:51:27;;;;;;;29.13;15.75;;;16.10;99.90;;;;;;5028924;28;20053;-80
2023/10/11 01:53:54;;;;;;;22.02;13.48;;;16.10;99.90;;;;;;5047064;28;20045;-79
2023/10/11 01:56:23;;;;;;;27.10;13.45;;;16.10;99.90;;;;;;5037699;28;20052;-80
2023/10/11 01:59:12;;;;;;;30.88;14.55;;;16.10;99.90;;;;;;5051521;28;20123;-79
2023/10/11 02:01:40;;;;;;;28.73;13.65;;;16.10;99.90;;;;;;5039818;28;20049;-79
2023/10/11 02:04:16;;;;;;;27.33;14.55;;;16.10;99.90;;;;;;5035305;28;20393;-79
2023/10/11 02:06:43;;;;;;;31.05;15.07;;;16.10;99.90;;;;;;5047866;28;20631;-79
2023/10/11 02:09:11;;;;;;;33.45;15.70;;;16.00;99.90;;;;;;5048965;28;20054;-79
2023/10/11 02:11:41;;;;;;;31.73;15.80;;;16.10;99.90;;;;;;5044575;28;20052;-79
2023/10/11 02:14:07;;;;;;;31.30;16.17;;;16.00;99.90;;;;;;5037912;28;20053;-79
2023/10/11 02:16:33;;;;;;;28.65;15.55;;;16.00;99.90;;;;;;5035725;28;20056;-79
2023/10/11 02:19:02;;;;;;;29.88;14.48;;;16.00;99.90;;;;;;5047007;28;20059;-80
2023/10/11 02:21:31;;;;;;;29.65;14.90;;;16.00;99.90;;;;;;5045756;28;20154;-79
2023/10/11 02:24:03;;;;;;;26.02;15.15;;;16.00;99.90;;;;;;5041362;28;20503;-80
2023/10/11 02:26:34;;;;;;;29.35;15.45;;;16.00;99.90;;;;;;5050312;28;20057;-79
2023/10/11 02:29:00;;;;;;;30.27;15.43;;;16.00;99.90;;;;;;5032129;28;20049;-80
2023/10/11 02:31:31;;;;;;;30.42;14.45;;;16.00;99.90;;;;;;5040733;28;20134;-79
2023/10/11 02:34:07;;;;;;;35.10;16.33;;;16.00;99.90;;;;;;5034156;28;20048;-79
2023/10/11 02:36:35;;;;;;;33.13;15.45;;;16.00;99.90;;;;;;5034148;28;20117;-80
2023/10/11 02:39:05;;;;;;;37.67;16.58;;;16.00;99.90;;;;;;5041004;28;20049;-79
2023/10/11 02:41:32;;;;;;;32.80;15.23;;;16.00;99.90;;;;;;5050024;28;20064;-79
2023/10/11 02:43:58;;;;;;;30.77;13.57;;;16.00;99.90;;;;;;5045934;28;20041;-80
2023/10/11 02:46:25;;;;;;;33.33;16.23;;;16.00;99.90;;;;;;5040291;28;20510;-80
2023/10/11 02:49:05;;;;;;;34.00;15.02;;;16.00;99.90;;;;;;5046688;28;20128;-80
2023/10/11 02:51:33;;;;;;;34.13;16.98;;;16.00;99.90;;;;;;5050677;28;20050;-79
2023/10/11 02:54:05;;;;;;;32.15;15.10;;;16.00;99.90;;;;;;5029379;28;20098;-79
2023/10/11 02:56:46;;;;;;;32.10;15.73;;;16.00;99.90;;;;;;5034289;28;20474;-81
2023/10/11 02:59:13;;;;;;;25.80;14.73;;;16.00;99.90;;;;;;5040077;28;20041;-80
2023/10/11 03:01:38;;;;;;;36.88;15.85;;;16.00;99.90;;;;;;5038791;28;20148;-80
2023/10/11 03:04:15;;;;;;;35.83;17.88;;;15.90;99.90;;;;;;5032463;28;20033;-79
2023/10/11 03:06:49;;;;;;;35.38;16.52;;;16.00;99.90;;;;;;5048157;28;20381;-80
2023/10/11 03:09:18;;;;;;;33.20;16.58;;;15.90;99.90;;;;;;5035210;28;20049;-79
2023/10/11 03:11:45;;;;;;;36.08;16.75;;;15.90;99.90;;;;;;5013757;28;20041;-79
2023/10/11 03:14:16;;;;;;;40.80;17.45;;;15.90;99.90;;;;;;5050589;28;20045;-80
2023/10/11 03:16:42;;;;;;;31.25;16.02;;;15.90;99.90;;;;;;5021737;28;20056;-79
2023/10/11 03:19:12;;;;;;;33.53;14.15;;;15.90;99.90;;;;;;5034145;28;20062;-79
2023/10/11 03:21:38;;;;;;;35.53;16.67;;;15.90;99.90;;;;;;5038916;28;20049;-79
2023/10/11 03:24:05;;;;;;;32.70;15.88;;;15.90;99.90;;;;;;5040116;28;20044;-79
2023/10/11 03:26:33;;;;;;;33.13;14.20;;;15.90;99.90;;;;;;5034491;28;20497;-79
2023/10/11 03:29:03;;;;;;;36.40;16.33;;;15.90;99.90;;;;;;5044546;28;20047;-79
2023/10/11 03:31:42;;;;;;;31.75;15.52;;;15.90;99.90;;;;;;5040005;28;20045;-79
2023/10/11 03:34:10;;;;;;;34.40;15.52;;;15.90;99.90;;;;;;5049019;28;20095;-79
2023/10/11 03:36:49;;;;;;;28.30;14.25;;;15.80;99.90;;;;;;5038509;28;20049;-80
2023/10/11 03:39:19;;;;;;;34.65;14.70;;;15.90;99.90;;;;;;5041338;28;20041;-80
2023/10/11 03:41:45;;;;;;;30.30;14.70;;;15.90;99.90;;;;;;5032283;28;20053;-81
2023/10/11 03:44:17;;;;;;;31.02;14.35;;;15.90;99.90;;;;;;5040509;28;20041;-80
2023/10/11 03:46:56;;;;;;;36.42;14.77;;;15.90;99.90;;;;;;5051006;28;20106;-80
2023/10/11 03:51:48;;;;;;;37.28;13.13;;;15.90;99.90;;;;;;5050758;28;20049;-81
2023/10/11 03:54:36;;;;;;;26.92;13.45;;;15.90;99.90;;;;;;5051513;28;20132;-80
2023/10/11 03:57:05;;;;;;;28.55;13.68;;;15.90;99.90;;;;;;5048124;28;20059;-80
2023/10/11 03:59:38;;;;;;;30.35;14.50;;;15.90;99.90;;;;;;5052814;28;20049;-80
2023/10/11 04:02:10;;;;;;;31.05;13.65;;;15.90;99.90;;;;;;5050424;28;20041;-80
2023/10/11 04:04:40;;;;;;;28.65;13.85;;;15.90;99.90;;;;;;5035090;28;20094;-80
2023/10/11 04:07:06;;;;;;;30.15;13.52;;;15.90;99.90;;;;;;5047874;28;20045;-81
2023/10/11 04:09:33;;;;;;;26.38;12.75;;;15.90;99.90;;;;;;5047971;28;20033;-80
2023/10/11 04:12:03;;;;;;;29.65;13.40;;;16.00;99.90;;;;;;5040380;28;20088;-80
2023/10/11 04:14:45;;;;;;;28.47;12.73;;;15.90;99.90;;;;;;5033443;28;20076;-81
2023/10/11 04:19:49;;;;;;;22.85;12.05;;;16.00;99.90;;;;;;5039296;28;20052;-80
2023/10/11 04:22:23;;;;;;;32.15;12.63;;;16.00;99.90;;;;;;5041146;28;20115;-81
2023/10/11 04:24:53;;;;;;;31.52;12.82;;;16.00;99.90;;;;;;5032295;28;20045;-80
2023/10/11 04:29:50;;;;;;;28.70;13.43;;;16.00;99.90;;;;;;5033268;28;20389;-80
2023/10/11 04:35:21;;;;;;;25.77;12.40;;;15.90;99.90;;;;;;5030817;28;20412;-80
2023/10/11 04:37:54;;;;;;;29.50;13.00;;;15.90;99.90;;;;;;5041118;28;20045;-80
2023/10/11 04:43:07;;;;;;;32.58;12.88;;;15.90;99.90;;;;;;5051370;28;20057;-80
2023/10/11 04:45:44;;;;;;;33.90;13.10;;;15.90;99.90;;;;;;5050978;28;20048;-80
2023/10/11 04:48:29;;;;;;;37.70;13.23;;;15.90;99.90;;;;;;5054503;28;20052;-80
2023/10/11 04:51:21;;;;;;;25.40;12.00;;;15.90;99.90;;;;;;5050583;28;20061;-80
2023/10/11 04:59:08;;;;;;;27.95;12.77;;;15.80;99.90;;;;;;5049197;28;20099;-81
2023/10/11 05:04:26;;;;;;;30.95;12.82;;;15.80;99.90;;;;;;5048803;28;20114;-78
2023/10/11 05:06:53;;;;;;;27.25;13.82;;;15.80;99.90;;;;;;5034409;28;20454;-80
2023/10/11 05:11:58;;;;;;;29.98;12.52;;;15.70;99.90;;;;;;5048462;28;20067;-79
2023/10/11 05:14:30;;;;;;;30.48;13.35;;;15.70;99.90;;;;;;5051910;28;20083;-79
2023/10/11 05:17:16;;;;;;;29.95;13.10;;;15.70;99.90;;;;;;5055846;28;20114;-79
2023/10/11 05:27:58;;;;;;;28.77;12.90;;;15.70;99.90;;;;;;5050857;28;20568;-79
2023/10/11 05:30:28;;;;;;;33.17;11.65;;;15.70;99.90;;;;;;5031748;28;20053;-80
2023/10/11 05:33:09;;;;;;;30.55;13.38;;;15.70;99.90;;;;;;5043256;28;20037;-80
2023/10/11 05:52:13;;;;;;;36.35;14.02;;;15.70;99.90;;;;;;5051532;28;20057;-81
2023/10/11 05:54:40;;;;;;;27.30;13.80;;;15.70;99.90;;;;;;5050984;28;20179;-79
2023/10/11 05:57:06;;;;;;;27.83;12.85;;;15.70;99.90;;;;;;5033676;28;20057;-80
2023/10/11 05:59:36;;;;;;;26.98;13.45;;;15.70;99.90;;;;;;5043908;28;20396;-80
2023/10/11 06:02:18;;;;;;;29.33;12.90;;;15.70;99.90;;;;;;5051221;28;20084;-80
2023/10/11 06:04:45;;;;;;;33.05;13.82;;;15.70;99.90;;;;;;5043569;28;20378;-79
2023/10/11 06:07:15;;;;;;;30.33;13.90;;;15.70;99.90;;;;;;5042259;28;20049;-80
2023/10/11 06:09:43;;;;;;;31.15;13.75;;;15.70;99.90;;;;;;5069563;28;20049;-82
2023/10/11 06:12:29;;;;;;;32.25;14.32;;;15.70;99.90;;;;;;5036352;28;20056;-82
2023/10/11 06:14:56;;;;;;;34.45;13.95;;;15.70;99.90;;;;;;5038403;28;20483;-80
2023/10/11 06:17:32;;;;;;;33.40;15.55;;;15.70;99.90;;;;;;5042731;28;20041;-82
2023/10/11 06:20:17;;;;;;;35.50;13.75;;;15.80;99.90;;;;;;5050261;28;20135;-78
2023/10/11 06:22:44;;;;;;;32.13;13.63;;;15.80;99.90;;;;;;5042916;28;20053;-78
2023/10/11 06:25:13;;;;;;;32.60;14.70;;;15.80;99.90;;;;;;5039295;28;20054;-80
2023/10/11 06:30:23;;;;;;;31.30;15.82;;;15.80;99.90;;;;;;5046147;28;20221;-74
2023/10/11 06:32:52;;;;;;;36.58;14.70;;;15.90;99.90;;;;;;5042416;28;20127;-78
2023/10/11 06:35:24;;;;;;;35.08;15.45;;;15.90;99.90;;;;;;5033559;28;20053;-75
2023/10/11 06:37:54;;;;;;;37.17;14.52;;;15.90;99.90;;;;;;5047702;28;20045;-78
2023/10/11 06:43:08;;;;;;;37.63;15.25;;;16.00;99.90;;;;;;5029091;28;20049;-76
2023/10/11 06:45:35;;;;;;;34.65;14.77;;;16.00;99.90;;;;;;5049737;28;20041;-76
2023/10/11 06:48:06;;;;;;;36.53;14.77;;;16.00;99.90;;;;;;5044690;28;20080;-77
2023/10/11 06:50:36;;;;;;;34.55;13.85;;;16.10;99.90;;;;;;5047149;28;20473;-76
2023/10/11 06:53:07;;;;;;;33.80;14.90;;;16.00;99.90;;;;;;5050974;28;20055;-76
2023/10/11 06:55:35;;;;;;;37.70;15.68;;;16.10;99.90;;;;;;5048069;28;20055;-76
2023/10/11 06:58:25;;;;;;;42.28;17.23;;;16.10;99.90;;;;;;5049072;28;20050;-77
2023/10/11 07:00:50;;;;;;;29.63;15.30;;;16.10;99.90;;;;;;5035940;28;22408;-76
2023/10/11 07:05:48;;;;;;;32.60;15.15;;;16.10;99.90;;;;;;5043169;28;20048;-77
2023/10/11 07:08:19;;;;;;;37.00;15.25;;;16.10;99.90;;;;;;5031048;28;20053;-78
2023/10/11 07:13:54;;;;;;;30.27;14.88;;;16.10;99.90;;;;;;5043916;28;20084;-77
2023/10/11 07:16:29;;;;;;;33.63;15.52;;;16.10;99.90;;;;;;5044344;28;20053;-78
2023/10/11 07:18:57;;;;;;;30.38;13.77;;;16.20;99.90;;;;;;5046802;28;20051;-78
2023/10/11 07:21:26;;;;;;;39.00;15.63;;;16.20;99.90;;;;;;5042392;28;20669;-79
2023/10/11 07:28:55;;;;;;;36.67;14.38;;;16.20;99.90;;;;;;5044775;28;20460;-77
2023/10/11 07:31:32;;;;;;;39.33;15.15;;;16.30;99.90;;;;;;5039241;28;20076;-77
2023/10/11 07:34:06;;;;;;;37.78;15.45;;;16.30;99.90;;;;;;5039986;28;20053;-78
2023/10/11 07:36:32;;;;;;;40.63;15.60;;;16.30;99.90;;;;;;5039016;28;20045;-78
2023/10/11 07:39:14;;;;;;;31.92;15.02;;;16.30;99.90;;;;;;5038821;28;20064;-77
2023/10/11 07:41:42;;;;;;;34.47;14.98;;;16.40;99.90;;;;;;5039488;28;20123;-78
2023/10/11 07:44:10;;;;;;;33.15;15.57;;;16.40;99.90;;;;;;5044250;28;20049;-78
2023/10/11 07:46:39;;;;;;;31.85;14.70;;;16.40;99.90;;;;;;5031581;28;20362;-78
2023/10/11 07:49:05;;;;;;;35.70;15.50;;;16.40;99.90;;;;;;5048446;28;20419;-80
2023/10/11 07:51:36;;;;;;;35.72;15.18;;;16.40;99.90;;;;;;5055032;28;20124;-83
2023/10/11 07:54:07;;;;;;;36.22;16.45;;;16.40;99.90;;;;;;5048550;28;20051;-83
2023/10/11 07:56:35;;;;;;;35.40;16.02;;;16.40;99.90;;;;;;5046096;28;20051;-81
2023/10/11 07:59:08;;;;;;;34.60;17.55;;;16.40;99.90;;;;;;5048136;28;20044;-81
2023/10/11 08:01:43;;;;;;;36.28;15.63;;;16.50;99.90;;;;;;5042844;28;20049;-80
2023/10/11 08:04:17;;;;;;;36.75;17.40;;;16.50;99.90;;;;;;5048732;28;20110;-81
2023/10/11 08:06:44;;;;;;;39.03;17.20;;;16.50;99.90;;;;;;5048873;28;20049;-80
2023/10/11 08:09:18;;;;;;;41.67;17.98;;;16.50;99.90;;;;;;5052199;28;20115;-79
2023/10/11 08:12:07;;;;;;;37.50;18.42;;;16.50;99.90;;;;;;5043749;28;20098;-81
2023/10/11 08:14:33;;;;;;;44.00;17.95;;;16.50;99.90;;;;;;5047388;28;20059;-81
2023/10/11 08:16:59;;;;;;;43.08;18.75;;;16.50;99.90;;;;;;5047231;28;20049;-79
2023/10/11 08:19:25;;;;;;;45.60;19.70;;;16.60;99.90;;;;;;5046815;28;20128;-79
2023/10/11 08:21:57;;;;;;;47.97;20.38;;;16.60;99.90;;;;;;5042530;28;20080;-77
2023/10/11 08:24:25;;;;;;;46.30;18.88;;;16.60;99.90;;;;;;5049386;28;20071;-76
2023/10/11 08:27:05;;;;;;;52.78;20.33;;;16.60;99.90;;;;;;5052209;28;20040;-78
2023/10/11 08:29:32;;;;;;;42.15;20.35;;;16.60;99.90;;;;;;5049641;28;20052;-77
2023/10/11 08:31:59;;;;;;;44.85;21.33;;;16.60;99.90;;;;;;5050194;28;20053;-77
2023/10/11 08:34:25;;;;;;;45.58;20.55;;;16.60;99.90;;;;;;5043642;28;20386;-78
2023/10/11 08:36:55;;;;;;;48.47;20.67;;;16.60;99.90;;;;;;5056809;28;20155;-78
2023/10/11 08:42:18;;;;;;;50.92;20.27;;;16.70;99.90;;;;;;5040849;28;20116;-78
2023/10/11 08:44:45;;;;;;;46.30;20.80;;;16.70;99.90;;;;;;5046592;28;20847;-78
2023/10/11 08:47:18;;;;;;;41.22;20.73;;;16.70;99.90;;;;;;5034629;28;20485;-77
2023/10/11 08:49:48;;;;;;;40.08;20.50;;;16.70;99.90;;;;;;5035458;28;20311;-78
2023/10/11 08:52:28;;;;;;;44.70;20.63;;;16.70;99.90;;;;;;5053726;28;20583;-77
2023/10/11 08:54:53;;;;;;;43.70;20.65;;;16.70;99.90;;;;;;5052157;28;20059;-77
2023/10/11 08:57:25;;;;;;;39.75;19.98;;;16.70;99.90;;;;;;5043953;28;20132;-76
2023/10/11 08:59:58;;;;;;;39.25;19.88;;;16.70;99.90;;;;;;5042780;28;20041;-77
2023/10/11 09:02:29;;;;;;;37.17;18.75;;;16.70;99.90;;;;;;5046925;28;20041;-77
2023/10/11 09:04:59;;;;;;;34.65;17.88;;;16.80;99.90;;;;;;5023824;28;20114;-78
2023/10/11 09:07:44;;;;;;;39.40;20.02;;;16.70;99.90;;;;;;5050358;28;20459;-78
2023/10/11 09:10:32;;;;;;;34.38;16.92;;;16.70;99.90;;;;;;5036201;28;20505;-78
2023/10/11 09:13:00;;;;;;;32.33;16.15;;;16.80;99.90;;;;;;5047195;28;20392;-77
2023/10/11 09:15:42;;;;;;;30.67;15.88;;;16.80;99.90;;;;;;5045789;28;20053;-77
2023/10/11 09:18:18;;;;;;;30.10;16.15;;;16.80;99.90;;;;;;5025348;28;20206;-78
2023/10/11 09:20:55;;;;;;;35.00;15.00;;;16.80;99.90;;;;;;5035620;28;20060;-77
2023/10/11 09:23:46;;;;;;;32.88;14.57;;;16.80;99.90;;;;;;5049737;28;20092;-83
2023/10/11 09:26:20;;;;;;;34.55;14.93;;;16.80;99.90;;;;;;5049375;28;20049;-81
2023/10/11 09:28:58;;;;;;;26.40;13.18;;;16.80;99.90;;;;;;5042155;28;20049;-87
2023/10/11 09:31:25;;;;;;;31.30;14.30;;;16.90;99.90;;;;;;5043515;28;20042;-85
2023/10/11 09:33:59;;;;;;;27.00;13.80;;;16.80;99.90;;;;;;5045100;28;20397;-86
2023/10/11 09:36:26;;;;;;;26.38;13.60;;;16.80;99.90;;;;;;5040991;28;20087;-81
2023/10/11 09:38:55;;;;;;;23.80;11.63;;;16.80;99.90;;;;;;5044850;28;20063;-83
2023/10/11 09:41:38;;;;;;;23.48;11.93;;;16.80;99.90;;;;;;5041129;28;20041;-83
2023/10/11 09:44:05;;;;;;;22.52;11.68;;;16.80;99.90;;;;;;5039804;28;20134;-81
2023/10/11 09:46:33;;;;;;;23.55;10.40;;;16.90;99.90;;;;;;5050612;28;20724;-84
2023/10/11 09:49:00;;;;;;;22.27;9.45;;;16.90;99.90;;;;;;5046250;28;20350;-82
2023/10/11 09:51:26;;;;;;;17.00;9.23;;;16.80;99.90;;;;;;5037601;28;20049;-78
2023/10/11 09:53:53;;;;;;;18.98;8.73;;;16.90;99.90;;;;;;5055511;28;20051;-77
2023/10/11 09:56:40;;;;;;;21.25;8.00;;;17.00;99.90;;;;;;5054225;28;20064;-76
2023/10/11 09:59:24;;;;;;;15.65;8.27;;;17.10;99.90;;;;;;5045032;28;20052;-81
2023/10/11 10:02:03;;;;;;;18.42;7.90;;;17.20;99.90;;;;;;5039092;28;20068;-76
2023/10/11 10:04:49;;;;;;;20.20;8.23;;;17.20;99.90;;;;;;5035464;28;20044;-76
2023/10/11 10:07:25;;;;;;;18.77;7.82;;;17.30;99.90;;;;;;5035508;28;20072;-76
2023/10/11 10:09:53;;;;;;;18.05;7.78;;;17.30;99.90;;;;;;5034491;28;20134;-76
2023/10/11 10:12:22;;;;;;;17.73;8.05;;;17.40;99.90;;;;;;5035243;28;20095;-80
2023/10/11 10:14:58;;;;;;;17.17;7.70;;;17.40;99.90;;;;;;5034321;28;20060;-76
2023/10/11 10:17:26;;;;;;;14.73;6.90;;;17.40;99.90;;;;;;5035314;28;20045;-76
2023/10/11 10:19:52;;;;;;;15.90;7.13;;;17.50;99.90;;;;;;5035093;28;20050;-77
2023/10/11 10:22:31;;;;;;;13.57;6.97;;;17.50;99.90;;;;;;5017033;28;20401;-76
2023/10/11 10:25:19;;;;;;;14.13;7.10;;;17.60;99.90;;;;;;5033902;28;20068;-75
2023/10/11 10:27:46;;;;;;;16.25;6.38;;;17.80;99.90;;;;;;5035124;28;20483;-75
2023/10/11 10:30:17;;;;;;;14.60;6.53;;;17.90;99.90;;;;;;5034029;28;20079;-75
2023/10/11 10:33:22;;;;;;;19.42;7.25;;;17.90;99.90;;;;;;5035225;28;20456;-75
2023/10/11 10:35:48;;;;;;;14.30;6.93;;;18.00;99.90;;;;;;5034000;28;20523;-76
2023/10/11 10:38:14;;;;;;;13.40;6.32;;;18.00;99.90;;;;;;5033908;28;20049;-75
2023/10/11 10:40:45;;;;;;;13.02;6.40;;;18.00;99.90;;;;;;5033686;28;20049;-77
2023/10/11 10:43:22;;;;;;;14.90;6.43;;;18.00;99.90;;;;;;5017793;28;20053;-77
2023/10/11 10:45:52;;;;;;;10.55;5.65;;;18.00;99.90;;;;;;5032665;28;20052;-77
2023/10/11 10:48:30;;;;;;;14.73;6.43;;;18.00;99.90;;;;;;5033781;28;20046;-77
2023/10/11 10:51:06;;;;;;;17.77;6.10;;;18.10;99.90;;;;;;5018499;28;20045;-78
2023/10/11 10:53:50;;;;;;;18.27;6.00;;;18.30;99.90;;;;;;5034396;28;20401;-82
2023/10/11 10:56:19;;;;;;;12.23;5.70;;;18.50;99.90;;;;;;5034678;28;20355;-80
2023/10/11 10:58:46;;;;;;;13.50;5.78;;;18.70;99.90;;;;;;5035200;28;20131;-82
2023/10/11 11:01:11;;;;;;;12.90;5.68;;;18.80;99.90;;;;;;5042601;28;20382;-87
2023/10/11 11:03:59;;;;;;;14.93;5.57;;;18.90;99.90;;;;;;5043617;28;20096;-80
2023/10/11 11:06:39;;;;;;;13.65;5.18;;;19.10;99.90;;;;;;5054195;28;20045;-80
2023/10/11 11:09:18;;;;;;;8.63;4.45;;;19.30;99.90;;;;;;5053845;28;20500;-79
2023/10/11 11:11:46;;;;;;;14.02;4.55;;;19.50;99.90;;;;;;5041749;28;20037;-78
2023/10/11 11:14:13;;;;;;;11.00;4.68;;;19.50;99.90;;;;;;5045311;28;20045;-77
2023/10/11 11:16:41;;;;;;;8.10;4.50;;;19.50;99.90;;;;;;5044275;28;20052;-77
2023/10/11 11:19:17;;;;;;;12.00;4.72;;;19.50;99.90;;;;;;5052743;28;20067;-77
2023/10/11 11:21:46;;;;;;;8.52;4.07;;;19.50;99.90;;;;;;5052562;28;20079;-75
2023/10/11 11:24:34;;;;;;;12.27;4.82;;;19.50;99.90;;;;;;5044322;28;20460;-76
2023/10/11 11:27:06;;;;;;;11.27;4.43;;;19.50;99.90;;;;;;5046350;28;20371;-85
2023/10/11 11:29:34;;;;;;;11.55;4.60;;;19.60;99.90;;;;;;5053640;28;20056;-79
2023/10/11 11:32:15;;;;;;;9.02;3.90;;;19.60;99.90;;;;;;5042250;28;20049;-81
2023/10/11 11:35:04;;;;;;;10.10;4.22;;;19.60;99.90;;;;;;5036156;28;20094;-78
2023/10/11 11:37:32;;;;;;;9.48;4.45;;;19.50;99.90;;;;;;5039592;28;20175;-80
2023/10/11 11:42:49;;;;;;;10.35;4.45;;;19.60;99.90;;;;;;5040557;28;20694;-78
2023/10/11 11:45:20;;;;;;;15.63;3.92;;;19.50;99.90;;;;;;5043518;28;20053;-77
2023/10/11 11:47:58;;;;;;;13.32;3.83;;;19.50;99.90;;;;;;5033975;28;20406;-78
2023/10/11 11:50:31;;;;;;;12.43;3.30;;;19.40;99.90;;;;;;5015950;28;20401;-78
2023/10/11 11:52:57;;;;;;;14.57;4.43;;;19.40;99.90;;;;;;5047176;28;20123;-75
2023/10/11 11:55:23;;;;;;;9.13;3.78;;;19.50;99.90;;;;;;5021056;28;20128;-83
2023/10/11 11:57:55;;;;;;;10.23;3.38;;;19.60;99.90;;;;;;5051114;28;20457;-77
2023/10/11 12:03:04;;;;;;;8.48;3.45;;;19.90;99.90;;;;;;5035815;28;20055;-80
2023/10/11 12:05:37;;;;;;;10.57;3.85;;;19.90;99.90;;;;;;5051486;28;20135;-83
2023/10/11 12:08:04;;;;;;;8.35;3.20;;;20.00;99.90;;;;;;5019815;28;20060;-79
2023/10/11 12:10:32;;;;;;;9.57;3.53;;;20.00;99.90;;;;;;5052931;28;20575;-78
2023/10/11 12:13:07;;;;;;;7.30;3.53;;;20.00;99.90;;;;;;5035670;28;20132;-78
2023/10/11 12:15:36;;;;;;;8.63;3.60;;;19.90;99.90;;;;;;5044909;28;20052;-79
2023/10/11 12:18:05;;;;;;;9.63;3.50;;;19.90;99.90;;;;;;5032278;28;20408;-79
2023/10/11 12:20:34;;;;;;;9.43;3.55;;;19.80;99.90;;;;;;4999081;28;20037;-79
2023/10/11 12:23:08;;;;;;;9.55;3.80;;;19.80;99.90;;;;;;5047209;28;20107;-80
2023/10/11 12:25:38;;;;;;;12.50;3.80;;;19.90;99.90;;;;;;5049097;28;20048;-80
2023/10/11 12:28:08;;;;;;;11.65;3.70;;;19.90;99.90;;;;;;5049061;28;20485;-78
2023/10/11 12:30:35;;;;;;;10.75;3.20;;;20.00;99.90;;;;;;5024366;28;20049;-78
2023/10/11 12:33:07;;;;;;;5.57;2.65;;;20.10;99.90;;;;;;5032412;28;20086;-80
2023/10/11 12:35:39;;;;;;;7.50;3.10;;;20.30;99.90;;;;;;5045717;28;20041;-77
2023/10/11 12:38:07;;;;;;;9.90;2.90;;;20.40;99.90;;;;;;5042822;28;20107;-77
2023/10/11 12:40:34;;;;;;;7.35;3.30;;;20.40;99.90;;;;;;5051422;28;20056;-79
2023/10/11 12:43:02;;;;;;;10.20;2.83;;;20.40;99.90;;;;;;5049602;28;20454;-77
2023/10/11 12:45:27;;;;;;;8.35;2.70;;;20.40;99.90;;;;;;5035553;28;20049;-77
2023/10/11 12:47:53;;;;;;;8.70;2.85;;;20.30;99.90;;;;;;5038955;28;20136;-77
2023/10/11 12:50:20;;;;;;;7.28;3.00;;;20.30;99.90;;;;;;5021708;28;20080;-78
2023/10/11 12:52:52;;;;;;;9.38;3.47;;;20.40;99.90;;;;;;5039329;28;20047;-78
2023/10/11 12:55:20;;;;;;;8.13;3.08;;;20.40;99.90;;;;;;5051171;28;20049;-77
2023/10/11 12:57:48;;;;;;;9.23;3.20;;;20.40;99.90;;;;;;5051918;28;20183;-78
2023/10/11 13:00:31;;;;;;;7.65;3.20;;;20.40;99.90;;;;;;5035014;28;20037;-77
2023/10/11 13:03:15;;;;;;;11.85;2.85;;;20.40;99.90;;;;;;5045858;28;20071;-77
2023/10/11 13:05:43;;;;;;;9.63;2.90;;;20.40;99.90;;;;;;5046096;28;20444;-78
2023/10/11 13:08:11;;;;;;;9.40;2.70;;;20.40;99.90;;;;;;5040162;28;20444;-77
2023/10/11 13:10:45;;;;;;;8.50;3.00;;;20.40;99.90;;;;;;5054438;28;20049;-82
2023/10/11 13:13:14;;;;;;;10.02;2.72;;;20.40;99.90;;;;;;5055162;28;20048;-78
2023/10/11 13:15:43;;;;;;;10.13;3.25;;;20.40;99.90;;;;;;5053259;28;20103;-78
2023/10/11 13:18:19;;;;;;;10.90;2.88;;;20.40;99.90;;;;;;5044083;28;20059;-78
2023/10/11 13:20:45;;;;;;;10.18;2.80;;;20.40;99.90;;;;;;5052765;28;20051;-80
2023/10/11 13:23:11;;;;;;;9.75;2.70;;;20.50;99.90;;;;;;5034958;28;20057;-77
2023/10/11 13:25:44;;;;;;;7.07;2.72;;;20.60;99.90;;;;;;5051441;28;20842;-77
2023/10/11 13:28:14;;;;;;;8.75;2.63;;;20.70;99.90;;;;;;5036416;28;20057;-79
2023/10/11 13:30:40;;;;;;;7.68;3.40;;;20.70;99.90;;;;;;5034445;28;20552;-77
2023/10/11 13:33:09;;;;;;;6.38;3.10;;;20.70;99.90;;;;;;5038063;28;20049;-79
2023/10/11 13:35:35;;;;;;;9.52;2.90;;;20.70;99.90;;;;;;5018952;28;20500;-83
2023/10/11 13:38:11;;;;;;;9.98;3.20;;;20.60;99.90;;;;;;5041580;28;20033;-80
2023/10/11 13:40:38;;;;;;;8.88;2.90;;;20.50;99.90;;;;;;5036241;28;20038;-82
2023/10/11 13:43:04;;;;;;;8.23;2.63;;;20.50;99.90;;;;;;5044436;28;20063;-83
2023/10/11 13:45:30;;;;;;;9.18;3.42;;;20.40;99.90;;;;;;5045793;28;20049;-82
2023/10/11 13:47:55;;;;;;;12.48;3.75;;;20.40;99.90;;;;;;5050300;28;20042;-82
2023/10/11 13:50:21;;;;;;;9.70;3.00;;;20.30;99.90;;;;;;5053365;28;20049;-83
2023/10/11 13:52:51;;;;;;;8.43;3.05;;;20.30;99.90;;;;;;5054864;28;20053;-83
2023/10/11 13:55:18;;;;;;;10.07;3.72;;;20.30;99.90;;;;;;5050514;28;20049;-83
2023/10/11 13:57:52;;;;;;;10.75;3.83;;;20.20;99.90;;;;;;5044558;28;20103;-83
2023/10/11 14:05:39;;;;;;;10.77;3.60;;;20.10;99.90;;;;;;5050412;28;20081;-83
2023/10/11 14:08:24;;;;;;;15.15;3.47;;;20.00;99.90;;;;;;5045761;28;20045;-82
2023/10/11 14:10:53;;;;;;;;;;;20.00;99.90;;;;;;5052957;28;20049;-82